Time;durP1;ratioP1;P1;durP2;ratioP2;P2;SDS_P1;SDS_P2;PMS_P1;PMS_P2;Temp;Humidity;BMP_temperature;BMP_pressure;BME280_temperature;BME280_humidity;BME280_pressure;Samples;Min_cycle;Max_cycle;Signal;HPM_P1;HPM_P2
2023/06/27 00:00:23;;;;;;;13.27;6.95;;;24.20;90.20;;;;;;5091160;28;20055;-67
2023/06/27 00:03:27;;;;;;;16.05;6.88;;;24.30;89.90;;;;;;5090641;28;20059;-67
2023/06/27 00:06:31;;;;;;;10.00;6.32;;;24.20;90.20;;;;;;5090625;28;20039;-67
2023/06/27 00:09:35;;;;;;;14.15;7.13;;;24.20;90.30;;;;;;5090866;28;20396;-67
2023/06/27 00:12:39;;;;;;;14.00;7.78;;;24.20;90.30;;;;;;5090554;28;20043;-67
2023/06/27 00:15:43;;;;;;;10.80;8.38;;;24.20;90.30;;;;;;5090458;28;20055;-67
2023/06/27 00:18:48;;;;;;;14.48;8.52;;;24.30;90.20;;;;;;5089513;28;20043;-68
2023/06/27 00:21:52;;;;;;;14.63;9.23;;;24.30;90.20;;;;;;5090802;28;20047;-67
2023/06/27 00:24:56;;;;;;;16.65;9.45;;;24.30;90.30;;;;;;5090254;28;20043;-67
2023/06/27 00:27:59;;;;;;;14.50;9.32;;;24.20;90.40;;;;;;5090585;28;20063;-67
2023/06/27 00:31:04;;;;;;;17.15;10.38;;;24.20;90.50;;;;;;5090345;28;20051;-67
2023/06/27 00:34:08;;;;;;;25.98;10.93;;;24.10;90.80;;;;;;5089167;28;20043;-67
2023/06/27 00:37:12;;;;;;;17.48;10.60;;;24.00;90.80;;;;;;5090035;28;20475;-69
2023/06/27 00:40:16;;;;;;;16.40;10.73;;;24.00;91.00;;;;;;5089691;28;20051;-67
2023/06/27 00:43:19;;;;;;;22.33;11.00;;;24.10;90.90;;;;;;5090130;28;20051;-67
2023/06/27 00:46:44;;;;;;;20.55;11.63;;;24.00;91.20;;;;;;5090149;28;20040;-67
2023/06/27 00:49:49;;;;;;;15.05;11.43;;;24.00;90.90;;;;;;5094230;28;20043;-67
2023/06/27 00:52:54;;;;;;;17.05;10.75;;;23.90;91.00;;;;;;5094094;28;20043;-67
2023/06/27 00:55:59;;;;;;;19.58;12.18;;;23.90;91.00;;;;;;5081538;28;20047;-68
2023/06/27 00:59:03;;;;;;;22.15;11.57;;;23.90;91.00;;;;;;5081246;28;20499;-67
2023/06/27 01:02:08;;;;;;;18.02;11.00;;;23.90;91.20;;;;;;5094080;28;20062;-67
2023/06/27 01:05:16;;;;;;;21.55;11.30;;;23.90;91.30;;;;;;5093919;28;20058;-67
2023/06/27 01:08:27;;;;;;;16.25;10.98;;;23.90;91.30;;;;;;5093671;28;20211;-67
2023/06/27 01:11:57;;;;;;;16.75;11.90;;;24.00;91.50;;;;;;5093025;28;20043;-67
2023/06/27 01:15:04;;;;;;;16.55;11.93;;;24.00;91.20;;;;;;5093700;28;20062;-67
2023/06/27 01:18:11;;;;;;;18.10;12.00;;;24.10;91.30;;;;;;5093884;28;20035;-67
2023/06/27 01:21:19;;;;;;;15.52;11.02;;;24.00;91.40;;;;;;5093226;28;20047;-67
2023/06/27 01:24:25;;;;;;;19.42;11.95;;;24.00;91.50;;;;;;5093681;28;20047;-67
2023/06/27 01:27:29;;;;;;;17.65;11.18;;;24.00;91.50;;;;;;5093191;28;20046;-67
2023/06/27 01:30:34;;;;;;;18.77;11.02;;;23.90;91.60;;;;;;5093169;28;20043;-67
2023/06/27 01:33:53;;;;;;;18.52;10.57;;;23.90;91.80;;;;;;5092436;28;20426;-67
2023/06/27 01:37:19;;;;;;;17.88;10.40;;;23.80;91.90;;;;;;5093351;28;20059;-67
2023/06/27 01:40:29;;;;;;;17.60;11.23;;;23.80;91.80;;;;;;5092485;28;20047;-67
2023/06/27 01:43:37;;;;;;;16.70;11.32;;;23.80;92.10;;;;;;5092507;28;20043;-67
2023/06/27 01:46:42;;;;;;;16.73;10.85;;;23.70;92.20;;;;;;5092974;28;20043;-67
2023/06/27 01:49:49;;;;;;;17.83;10.05;;;23.60;92.30;;;;;;5092214;28;20145;-67
2023/06/27 01:52:56;;;;;;;21.13;10.13;;;23.60;92.30;;;;;;5092604;28;20785;-67
2023/06/27 01:55:59;;;;;;;17.30;9.95;;;23.60;92.40;;;;;;5092777;28;20062;-67
2023/06/27 01:59:04;;;;;;;18.80;9.13;;;23.60;92.40;;;;;;5091685;28;20047;-67
2023/06/27 02:02:08;;;;;;;20.17;9.55;;;23.50;92.40;;;;;;5091778;28;20047;-67
2023/06/27 02:05:11;;;;;;;15.32;10.27;;;23.50;92.60;;;;;;5092554;28;20383;-67
2023/06/27 02:08:15;;;;;;;12.88;8.70;;;23.50;92.60;;;;;;5091710;28;20063;-67
2023/06/27 02:11:19;;;;;;;11.52;8.77;;;23.50;92.60;;;;;;5092414;28;20474;-67
2023/06/27 02:14:23;;;;;;;11.88;8.43;;;23.50;92.60;;;;;;5092678;28;20051;-67
2023/06/27 02:36:46;;;;;;;15.27;9.45;;;23.30;92.50;;;;;;5095457;28;20126;-67
2023/06/27 02:39:52;;;;;;;15.25;9.00;;;23.40;92.30;;;;;;5092054;28;20063;-67
2023/06/27 02:42:55;;;;;;;17.55;9.50;;;23.30;92.50;;;;;;5091773;28;20043;-67
2023/06/27 02:46:00;;;;;;;16.85;10.27;;;23.30;92.50;;;;;;5091855;28;20039;-67
2023/06/27 02:49:04;;;;;;;16.10;9.70;;;23.20;92.60;;;;;;5090785;28;20035;-67
2023/06/27 02:52:11;;;;;;;18.15;9.85;;;23.00;92.70;;;;;;5091029;28;20051;-67
2023/06/27 02:55:15;;;;;;;11.15;9.18;;;23.00;93.00;;;;;;5090917;28;20047;-67
2023/06/27 02:58:19;;;;;;;14.18;10.45;;;23.00;93.00;;;;;;5090778;28;20043;-67
2023/06/27 03:01:23;;;;;;;21.95;10.40;;;23.10;93.20;;;;;;5091560;28;20059;-67
2023/06/27 03:04:27;;;;;;;15.05;9.70;;;23.10;92.90;;;;;;5090855;28;20058;-67
2023/06/27 03:07:31;;;;;;;21.70;10.18;;;23.20;93.10;;;;;;5090702;28;20498;-67
2023/06/27 03:10:34;;;;;;;13.02;9.55;;;23.10;92.90;;;;;;5090119;28;20039;-67
2023/06/27 03:13:39;;;;;;;14.65;9.93;;;23.20;92.90;;;;;;5090665;28;20507;-67
2023/06/27 03:16:44;;;;;;;19.17;10.50;;;23.10;92.70;;;;;;5090400;28;20510;-67
2023/06/27 03:19:48;;;;;;;18.65;10.73;;;23.10;92.70;;;;;;5091596;28;20043;-67
2023/06/27 03:22:53;;;;;;;14.27;9.80;;;23.00;93.00;;;;;;5090447;28;20055;-67
2023/06/27 03:25:57;;;;;;;14.82;10.05;;;23.10;92.90;;;;;;5090407;28;20051;-67
2023/06/27 03:29:01;;;;;;;17.17;9.82;;;23.10;92.60;;;;;;5090570;28;20216;-67
2023/06/27 03:32:06;;;;;;;14.45;9.93;;;23.10;92.50;;;;;;5090629;28;20035;-68
2023/06/27 03:35:10;;;;;;;18.15;9.57;;;23.10;92.20;;;;;;5091028;28;20051;-67
2023/06/27 03:38:15;;;;;;;16.38;9.65;;;23.00;92.00;;;;;;5090271;28;20051;-67
2023/06/27 03:41:21;;;;;;;16.05;9.07;;;22.90;91.80;;;;;;5090435;28;20388;-67
2023/06/27 03:44:31;;;;;;;15.13;9.68;;;23.00;91.80;;;;;;5089866;28;20044;-67
2023/06/27 03:47:37;;;;;;;17.38;9.93;;;22.90;91.40;;;;;;5090230;28;20055;-67
2023/06/27 03:50:41;;;;;;;16.05;11.15;;;23.00;91.00;;;;;;5090406;28;20043;-67
2023/06/27 03:53:45;;;;;;;14.98;9.98;;;22.80;91.00;;;;;;5090066;28;20067;-67
2023/06/27 03:56:49;;;;;;;14.35;9.18;;;22.90;90.90;;;;;;5090676;28;20055;-67
2023/06/27 03:59:53;;;;;;;11.85;9.25;;;22.90;90.90;;;;;;5090183;28;20043;-67
2023/06/27 04:02:57;;;;;;;15.15;8.93;;;22.90;90.60;;;;;;5090820;28;20055;-67
2023/06/27 04:06:01;;;;;;;18.45;10.57;;;22.80;91.00;;;;;;5090723;28;20387;-67
2023/06/27 04:09:06;;;;;;;23.75;11.40;;;22.70;91.20;;;;;;5090127;28;20051;-67
2023/06/27 04:12:10;;;;;;;19.75;10.65;;;22.80;91.30;;;;;;5089730;28;20043;-67
2023/06/27 04:15:14;;;;;;;18.77;10.02;;;22.90;90.80;;;;;;5090630;28;20058;-67
2023/06/27 04:18:18;;;;;;;18.45;9.35;;;23.00;90.90;;;;;;5089813;28;20042;-67
2023/06/27 04:21:22;;;;;;;14.18;9.43;;;23.20;90.50;;;;;;5089915;28;20039;-67
2023/06/27 04:24:26;;;;;;;15.15;8.95;;;23.20;90.30;;;;;;5094532;28;20039;-67
2023/06/27 04:27:30;;;;;;;18.90;9.32;;;23.20;90.30;;;;;;5093490;28;20039;-67
2023/06/27 04:30:36;;;;;;;15.45;9.43;;;23.20;90.60;;;;;;5094747;28;20062;-67
2023/06/27 04:33:40;;;;;;;16.67;9.07;;;23.30;90.60;;;;;;5094184;28;20043;-67
2023/06/27 04:36:44;;;;;;;20.42;9.48;;;23.30;90.50;;;;;;5094204;28;20050;-67
2023/06/27 04:39:47;;;;;;;23.13;9.00;;;23.50;90.50;;;;;;5093507;28;20122;-67
2023/06/27 04:42:51;;;;;;;25.92;9.18;;;23.90;90.40;;;;;;5093348;28;20043;-67
2023/06/27 04:45:55;;;;;;;22.90;8.35;;;24.30;89.00;;;;;;5093512;28;20043;-67
2023/06/27 04:49:00;;;;;;;22.63;8.88;;;24.50;88.40;;;;;;5094031;28;20051;-67
2023/06/27 04:52:04;;;;;;;15.77;8.57;;;24.50;88.40;;;;;;5094148;28;20055;-67
2023/06/27 04:55:08;;;;;;;24.42;9.18;;;24.40;88.80;;;;;;5094136;28;20043;-67
2023/06/27 04:58:13;;;;;;;39.28;10.43;;;24.30;89.70;;;;;;5094144;28;20051;-65
2023/06/27 05:01:16;;;;;;;25.02;10.20;;;24.40;90.00;;;;;;5092853;28;20113;-67
2023/06/27 05:04:21;;;;;;;15.90;8.95;;;24.60;89.70;;;;;;5093729;28;20193;-67
2023/06/27 05:07:25;;;;;;;38.85;9.82;;;24.70;89.20;;;;;;5093770;28;20043;-67
2023/06/27 05:10:30;;;;;;;27.25;9.00;;;24.90;89.30;;;;;;5093723;28;20395;-67
2023/06/27 05:13:34;;;;;;;18.35;9.05;;;25.10;89.40;;;;;;5093673;28;20058;-67
2023/06/27 05:16:38;;;;;;;20.10;9.18;;;25.40;89.00;;;;;;5093407;28;20536;-67
2023/06/27 05:19:42;;;;;;;16.63;10.15;;;25.70;88.10;;;;;;5093476;28;20387;-65
2023/06/27 05:22:46;;;;;;;13.50;9.00;;;26.10;86.80;;;;;;5093282;28;20043;-65
2023/06/27 05:25:50;;;;;;;19.73;10.20;;;26.40;86.30;;;;;;5093293;28;20043;-65
2023/06/27 05:28:57;;;;;;;17.85;9.82;;;26.80;84.80;;;;;;5092717;28;20039;-65
2023/06/27 05:32:01;;;;;;;25.15;9.48;;;27.10;84.00;;;;;;5093365;28;20043;-65
2023/06/27 05:35:06;;;;;;;28.35;10.75;;;27.40;83.60;;;;;;5092785;28;20043;-65
2023/06/27 05:38:10;;;;;;;26.20;9.95;;;27.70;83.00;;;;;;5093124;28;20075;-65
2023/06/27 05:41:17;;;;;;;23.23;10.23;;;27.70;82.50;;;;;;5093227;28;20051;-65
2023/06/27 05:44:21;;;;;;;22.40;9.88;;;27.90;82.50;;;;;;5092865;28;20404;-65
2023/06/27 05:47:25;;;;;;;20.80;9.30;;;28.10;82.20;;;;;;5093355;28;20043;-65
2023/06/27 05:50:29;;;;;;;23.30;10.35;;;28.20;81.10;;;;;;5093329;28;20525;-65
2023/06/27 05:53:33;;;;;;;34.70;10.32;;;28.30;81.20;;;;;;5093205;28;20035;-65
2023/06/27 05:56:38;;;;;;;26.42;9.07;;;28.20;80.70;;;;;;5093035;28;20063;-65
2023/06/27 05:59:42;;;;;;;28.80;9.07;;;28.20;80.70;;;;;;5092406;28;20043;-65
2023/06/27 06:02:47;;;;;;;20.30;8.45;;;28.30;80.20;;;;;;5092981;28;20043;-65
2023/06/27 06:05:51;;;;;;;18.77;8.10;;;28.50;79.80;;;;;;5092727;28;20059;-65
2023/06/27 06:08:55;;;;;;;20.55;7.78;;;28.70;79.10;;;;;;5092927;28;20031;-65
2023/06/27 06:11:59;;;;;;;12.65;7.22;;;28.90;78.40;;;;;;5092732;28;20043;-65
2023/06/27 06:15:04;;;;;;;16.92;8.35;;;29.20;77.70;;;;;;5092324;28;20494;-65
2023/06/27 06:18:08;;;;;;;20.17;7.45;;;29.20;77.00;;;;;;5092422;28;20055;-65
2023/06/27 06:21:18;;;;;;;16.60;7.75;;;29.40;77.00;;;;;;5092318;28;20039;-66
2023/06/27 06:24:22;;;;;;;13.27;7.40;;;29.70;76.30;;;;;;5091929;28;20059;-65
2023/06/27 06:27:26;;;;;;;19.02;7.60;;;29.80;75.90;;;;;;5092319;28;20051;-66
2023/06/27 06:30:30;;;;;;;18.83;7.30;;;29.90;75.40;;;;;;5091990;28;20063;-66
2023/06/27 06:33:34;;;;;;;14.57;6.80;;;29.90;75.30;;;;;;5092057;28;20059;-65
2023/06/27 06:36:41;;;;;;;17.92;6.78;;;30.10;74.80;;;;;;5092150;28;20058;-65
2023/06/27 06:39:45;;;;;;;18.77;8.27;;;30.30;75.20;;;;;;5091862;28;20047;-65
2023/06/27 06:42:49;;;;;;;19.05;7.80;;;30.30;75.40;;;;;;5092041;28;20396;-66
2023/06/27 06:45:53;;;;;;;15.80;7.30;;;30.30;75.10;;;;;;5090932;28;20039;-65
2023/06/27 06:48:56;;;;;;;18.52;7.75;;;30.40;74.70;;;;;;5091822;28;20051;-64
2023/06/27 06:52:00;;;;;;;26.55;8.30;;;30.60;75.10;;;;;;5091879;28;20047;-65
2023/06/27 06:55:05;;;;;;;17.77;7.55;;;30.80;74.00;;;;;;5091610;28;20522;-65
2023/06/27 06:58:09;;;;;;;13.70;7.63;;;30.70;73.50;;;;;;5091497;28;20666;-65
2023/06/27 07:01:12;;;;;;;13.20;6.78;;;30.80;73.00;;;;;;5091331;28;20043;-65
2023/06/27 07:04:16;;;;;;;18.83;7.30;;;30.80;73.30;;;;;;5091219;28;20670;-65
2023/06/27 07:07:23;;;;;;;17.67;8.48;;;30.70;73.40;;;;;;5091659;28;20054;-65
2023/06/27 07:10:27;;;;;;;18.77;7.78;;;31.00;73.60;;;;;;5091790;28;20055;-65
2023/06/27 07:13:31;;;;;;;27.85;9.77;;;31.10;74.20;;;;;;5091358;28;20043;-65
2023/06/27 07:16:35;;;;;;;26.52;7.80;;;31.50;74.20;;;;;;5091363;28;20058;-65
2023/06/27 07:19:42;;;;;;;17.77;8.10;;;31.70;73.00;;;;;;5091598;28;20062;-65
2023/06/27 07:22:46;;;;;;;20.65;7.53;;;31.70;73.50;;;;;;5091213;28;20039;-67
2023/06/27 07:25:51;;;;;;;14.45;7.63;;;31.70;73.10;;;;;;5091119;28;20040;-66
2023/06/27 07:28:55;;;;;;;18.08;7.63;;;31.90;72.70;;;;;;5091160;28;20039;-66
2023/06/27 07:31:58;;;;;;;20.35;7.03;;;31.90;72.20;;;;;;5091282;28;20047;-66
2023/06/27 07:35:04;;;;;;;17.00;7.40;;;31.80;73.00;;;;;;5090932;28;20062;-64
2023/06/27 07:38:08;;;;;;;16.15;7.30;;;32.10;72.90;;;;;;5090236;28;20051;-66
2023/06/27 07:41:12;;;;;;;23.80;7.93;;;32.40;71.60;;;;;;5091106;28;20039;-66
2023/06/27 07:44:16;;;;;;;22.48;7.57;;;32.60;72.30;;;;;;5090823;28;20047;-64
2023/06/27 07:47:20;;;;;;;18.90;7.47;;;32.60;71.60;;;;;;5090818;28;20395;-66
2023/06/27 07:50:24;;;;;;;14.48;7.10;;;32.60;70.50;;;;;;5091081;28;20047;-65
2023/06/27 07:53:28;;;;;;;24.10;8.52;;;32.40;70.70;;;;;;5090885;28;20086;-66
2023/06/27 07:56:32;;;;;;;15.20;6.60;;;32.40;71.20;;;;;;5091676;28;20059;-66
2023/06/27 07:59:36;;;;;;;13.40;6.20;;;32.50;70.70;;;;;;5095086;28;20526;-65
2023/06/27 08:02:40;;;;;;;16.30;6.57;;;32.50;70.20;;;;;;5094879;28;20490;-65
2023/06/27 08:05:44;;;;;;;14.95;7.07;;;32.70;70.20;;;;;;5095079;28;20093;-65
2023/06/27 08:08:48;;;;;;;17.23;8.00;;;32.90;69.70;;;;;;5095009;28;20063;-65
2023/06/27 08:11:52;;;;;;;13.65;6.38;;;32.80;69.50;;;;;;5094905;28;20047;-66
2023/06/27 08:14:56;;;;;;;31.02;7.95;;;32.70;69.90;;;;;;5094740;28;20047;-66
2023/06/27 08:18:00;;;;;;;16.35;6.70;;;32.80;70.40;;;;;;5094896;28;20051;-67
2023/06/27 08:21:05;;;;;;;10.52;6.72;;;33.10;69.60;;;;;;5094538;28;20050;-66
2023/06/27 08:24:08;;;;;;;19.27;6.65;;;33.20;67.60;;;;;;5094845;28;20035;-70
2023/06/27 08:27:13;;;;;;;9.88;6.15;;;33.40;66.10;;;;;;5094405;28;20054;-66
2023/06/27 08:30:16;;;;;;;9.95;6.78;;;33.30;65.80;;;;;;5094755;28;20055;-64
2023/06/27 08:33:20;;;;;;;10.88;6.15;;;33.20;66.10;;;;;;5093426;28;20102;-66
2023/06/27 08:36:24;;;;;;;19.45;7.68;;;33.10;65.90;;;;;;5094538;28;20058;-65
2023/06/27 08:39:28;;;;;;;21.80;7.38;;;33.10;65.70;;;;;;5093808;28;20051;-65
2023/06/27 08:42:32;;;;;;;14.73;5.82;;;33.20;65.70;;;;;;5092724;28;20051;-66
2023/06/27 08:45:39;;;;;;;15.10;7.10;;;33.20;65.70;;;;;;5094045;28;20051;-65
2023/06/27 08:48:45;;;;;;;14.50;5.88;;;33.20;64.20;;;;;;5093048;28;20514;-67
2023/06/27 08:51:52;;;;;;;20.35;7.13;;;33.30;65.10;;;;;;5092046;28;20043;-65
2023/06/27 08:54:58;;;;;;;23.05;6.90;;;33.40;64.90;;;;;;5093358;28;20043;-66
2023/06/27 08:58:04;;;;;;;10.52;6.65;;;33.40;64.90;;;;;;5092486;28;20067;-64
2023/06/27 09:01:10;;;;;;;11.60;6.65;;;33.40;65.80;;;;;;5094166;28;20051;-66
2023/06/27 09:04:14;;;;;;;11.93;6.80;;;33.50;66.10;;;;;;5094114;28;20055;-65
2023/06/27 09:07:18;;;;;;;16.95;7.03;;;33.40;65.70;;;;;;5093854;28;20399;-66
2023/06/27 09:10:22;;;;;;;15.30;7.00;;;33.30;65.80;;;;;;5093854;28;20046;-64
2023/06/27 09:13:27;;;;;;;26.83;7.80;;;33.00;66.00;;;;;;5093722;28;20051;-66
2023/06/27 09:16:31;;;;;;;14.05;6.90;;;33.00;66.80;;;;;;5093879;28;20059;-65
2023/06/27 09:19:37;;;;;;;11.98;6.95;;;33.00;66.10;;;;;;5093792;28;20491;-65
2023/06/27 09:22:42;;;;;;;14.00;6.60;;;33.10;65.30;;;;;;5093584;28;20039;-66
2023/06/27 09:26:11;;;;;;;10.13;6.15;;;33.10;65.70;;;;;;5093678;28;20391;-66
2023/06/27 09:29:16;;;;;;;11.73;6.43;;;33.20;66.90;;;;;;5093705;28;20059;-66
2023/06/27 09:32:20;;;;;;;18.48;6.93;;;33.30;67.30;;;;;;5093075;28;20051;-65
2023/06/27 09:35:26;;;;;;;15.07;7.10;;;33.40;67.20;;;;;;5091610;28;20047;-67
2023/06/27 09:38:33;;;;;;;12.63;6.88;;;33.50;67.20;;;;;;5091433;28;20051;-67
2023/06/27 09:41:45;;;;;;;18.90;7.32;;;33.50;67.90;;;;;;5091574;28;20054;-65
2023/06/27 09:44:49;;;;;;;15.45;7.07;;;33.60;68.80;;;;;;5091387;28;20071;-65
2023/06/27 09:47:53;;;;;;;12.32;6.32;;;33.60;69.00;;;;;;5092654;28;20043;-66
2023/06/27 09:51:01;;;;;;;10.23;6.53;;;33.60;69.50;;;;;;5093370;28;20051;-65
2023/06/27 09:54:05;;;;;;;14.65;6.18;;;33.60;69.70;;;;;;5093169;28;20035;-66
2023/06/27 09:57:16;;;;;;;15.80;6.60;;;33.70;69.70;;;;;;5092958;28;20051;-63
2023/06/27 10:00:22;;;;;;;18.50;8.07;;;33.70;68.80;;;;;;5092998;28;20059;-65
2023/06/27 10:03:26;;;;;;;11.63;6.32;;;33.80;69.00;;;;;;5092931;28;20043;-65
2023/06/27 10:06:31;;;;;;;11.40;5.88;;;33.80;70.90;;;;;;5092905;28;20078;-66
2023/06/27 10:09:37;;;;;;;9.43;6.28;;;33.80;71.90;;;;;;5093228;28;20055;-66
2023/06/27 10:12:43;;;;;;;9.02;6.50;;;33.80;71.10;;;;;;5092006;28;20042;-67
2023/06/27 10:15:48;;;;;;;17.77;6.65;;;33.80;71.20;;;;;;5092999;28;20471;-67
2023/06/27 10:18:55;;;;;;;16.30;6.45;;;33.80;71.50;;;;;;5092584;28;20055;-69
2023/06/27 10:22:01;;;;;;;7.50;5.78;;;33.70;71.10;;;;;;5092128;28;20055;-70
2023/06/27 10:25:06;;;;;;;11.45;6.00;;;33.70;70.80;;;;;;5090564;28;20046;-67
2023/06/27 10:28:13;;;;;;;11.63;5.30;;;33.70;70.70;;;;;;5090026;28;20043;-69
2023/06/27 10:31:42;;;;;;;11.57;6.22;;;33.60;70.70;;;;;;5091670;28;20054;-64
2023/06/27 10:34:46;;;;;;;9.68;5.22;;;33.60;70.50;;;;;;5091817;28;20388;-69
2023/06/27 10:38:14;;;;;;;11.60;5.55;;;33.60;70.30;;;;;;5091594;28;20070;-67
2023/06/27 10:41:33;;;;;;;10.43;5.65;;;33.50;71.00;;;;;;5092150;28;20047;-66
2023/06/27 10:45:06;;;;;;;5.85;4.80;;;33.50;70.90;;;;;;5091924;28;20039;-66
2023/06/27 10:48:10;;;;;;;12.00;5.80;;;33.40;71.10;;;;;;5091204;28;20490;-69
2023/06/27 10:51:19;;;;;;;14.00;5.72;;;33.30;70.70;;;;;;5089822;28;20062;-68
2023/06/27 10:54:23;;;;;;;13.05;5.20;;;33.20;71.40;;;;;;5091035;28;20546;-67
2023/06/27 10:57:39;;;;;;;11.82;5.15;;;33.20;71.80;;;;;;5091542;28;20070;-67
2023/06/27 11:00:50;;;;;;;16.50;6.60;;;33.10;71.70;;;;;;5091169;28;20384;-67
2023/06/27 11:03:57;;;;;;;12.30;5.22;;;33.00;72.20;;;;;;5089390;28;20043;-67
2023/06/27 11:07:02;;;;;;;18.23;6.32;;;32.90;71.80;;;;;;5090974;28;20047;-67
2023/06/27 11:10:26;;;;;;;14.95;5.80;;;32.90;71.80;;;;;;5090656;28;20505;-67
2023/06/27 11:13:43;;;;;;;9.77;5.10;;;32.80;72.20;;;;;;5090771;28;20031;-67
2023/06/27 11:16:48;;;;;;;12.52;5.75;;;32.70;71.80;;;;;;5091269;28;20055;-67
2023/06/27 11:19:55;;;;;;;17.48;6.32;;;32.70;72.30;;;;;;5091371;28;20043;-67
2023/06/27 11:23:01;;;;;;;30.52;6.43;;;32.60;73.10;;;;;;5091119;28;20047;-67
2023/06/27 11:26:05;;;;;;;12.77;6.40;;;32.70;73.80;;;;;;5091409;28;20043;-67
2023/06/27 11:29:08;;;;;;;9.90;5.65;;;32.70;72.90;;;;;;5091349;28;20043;-67
2023/06/27 11:32:12;;;;;;;16.98;5.82;;;32.60;73.00;;;;;;5090631;28;20055;-67
2023/06/27 11:35:16;;;;;;;9.55;5.90;;;32.70;73.90;;;;;;5091112;28;20046;-67
2023/06/27 11:38:23;;;;;;;15.75;5.78;;;32.70;74.20;;;;;;5090865;28;20063;-67
2023/06/27 11:41:27;;;;;;;10.57;5.18;;;32.70;73.80;;;;;;5091095;28;20050;-67
2023/06/27 11:44:32;;;;;;;13.02;5.40;;;32.60;74.10;;;;;;5090899;28;20051;-67
2023/06/27 11:47:36;;;;;;;13.38;5.82;;;32.60;74.20;;;;;;5091170;28;20043;-67
2023/06/27 11:50:57;;;;;;;22.42;6.80;;;32.70;74.80;;;;;;5091228;28;20055;-67
2023/06/27 11:54:02;;;;;;;16.10;5.18;;;33.70;73.70;;;;;;5090723;28;20039;-66
2023/06/27 11:57:06;;;;;;;12.23;5.18;;;34.80;71.50;;;;;;5090909;28;20054;-66
2023/06/27 12:00:22;;;;;;;15.95;5.78;;;35.50;70.40;;;;;;5090825;28;20508;-66
2023/06/27 12:03:32;;;;;;;17.90;5.90;;;35.60;69.60;;;;;;5090537;28;20145;-67
2023/06/27 12:06:36;;;;;;;12.77;5.57;;;35.70;70.30;;;;;;5090945;28;20043;-66
2023/06/27 12:09:40;;;;;;;11.93;5.85;;;35.70;70.20;;;;;;5090854;28;20047;-66
2023/06/27 12:12:44;;;;;;;11.27;5.15;;;35.70;70.50;;;;;;5091003;28;20051;-66
2023/06/27 12:15:48;;;;;;;14.85;4.90;;;35.40;70.90;;;;;;5090654;28;20532;-66
2023/06/27 12:18:52;;;;;;;19.23;5.75;;;35.60;71.70;;;;;;5090806;28;20051;-66
2023/06/27 12:21:58;;;;;;;9.80;5.40;;;35.90;70.70;;;;;;5090869;28;20043;-65
2023/06/27 12:25:02;;;;;;;12.10;5.55;;;35.90;70.00;;;;;;5090590;28;20047;-66
2023/06/27 12:28:07;;;;;;;9.07;5.03;;;35.60;69.70;;;;;;5090701;28;20395;-67
2023/06/27 12:31:11;;;;;;;15.52;5.20;;;36.00;69.20;;;;;;5090589;28;20055;-67
2023/06/27 12:34:16;;;;;;;18.00;5.05;;;35.60;69.80;;;;;;5090780;28;20047;-68
2023/06/27 12:37:20;;;;;;;10.82;5.53;;;35.60;69.30;;;;;;5089383;28;20055;-68
2023/06/27 12:40:25;;;;;;;9.20;4.80;;;35.60;68.10;;;;;;5090491;28;20546;-67
2023/06/27 12:43:29;;;;;;;11.75;4.65;;;35.90;67.20;;;;;;5092656;28;20039;-67
2023/06/27 12:46:35;;;;;;;12.13;5.13;;;36.00;67.90;;;;;;5093425;28;20043;-67
2023/06/27 12:49:39;;;;;;;9.23;5.50;;;36.30;68.70;;;;;;5094126;28;20039;-67
2023/06/27 12:52:47;;;;;;;12.93;6.90;;;36.40;68.80;;;;;;5094447;28;20051;-67
2023/06/27 12:55:51;;;;;;;10.27;5.10;;;36.50;69.10;;;;;;5094208;28;20047;-67
2023/06/27 12:58:55;;;;;;;11.27;5.05;;;36.50;69.00;;;;;;5094074;28;20051;-67
2023/06/27 13:02:00;;;;;;;12.25;5.28;;;36.40;69.30;;;;;;5094241;28;20039;-67
2023/06/27 13:05:05;;;;;;;8.80;4.60;;;36.40;69.70;;;;;;5093119;28;20043;-66
2023/06/27 13:08:09;;;;;;;25.25;6.00;;;36.20;67.60;;;;;;5093892;28;20047;-66
2023/06/27 13:11:15;;;;;;;12.73;5.25;;;36.10;67.70;;;;;;5094236;28;20391;-66
2023/06/27 13:14:18;;;;;;;17.52;5.70;;;35.90;68.80;;;;;;5093916;28;20043;-66
2023/06/27 13:17:22;;;;;;;13.05;5.22;;;35.90;69.50;;;;;;5093649;28;20051;-68
2023/06/27 13:20:26;;;;;;;10.75;5.35;;;35.50;70.00;;;;;;5094113;28;20043;-67
2023/06/27 13:23:31;;;;;;;39.42;6.93;;;35.50;70.00;;;;;;5092677;28;20055;-67
2023/06/27 13:26:34;;;;;;;18.02;5.00;;;35.90;69.90;;;;;;5093413;28;20189;-66
2023/06/27 13:29:38;;;;;;;12.43;5.00;;;35.90;68.70;;;;;;5093331;28;20055;-66
2023/06/27 13:32:43;;;;;;;7.03;4.30;;;35.10;69.00;;;;;;5092696;28;20050;-66
2023/06/27 13:35:48;;;;;;;16.55;5.10;;;34.50;70.10;;;;;;5092539;28;20051;-66
2023/06/27 13:38:52;;;;;;;10.57;4.60;;;34.00;70.70;;;;;;5092628;28;20518;-65
2023/06/27 13:41:56;;;;;;;12.15;5.30;;;33.70;70.70;;;;;;5092611;28;20499;-66
2023/06/27 13:45:00;;;;;;;8.45;4.97;;;33.40;70.70;;;;;;5092755;28;20051;-65
2023/06/27 13:48:04;;;;;;;10.52;4.88;;;33.10;71.60;;;;;;5092961;28;20393;-66
2023/06/27 13:51:08;;;;;;;10.95;4.68;;;33.00;71.60;;;;;;5093450;28;20039;-66
2023/06/27 13:54:12;;;;;;;20.30;5.32;;;32.90;72.70;;;;;;5091867;28;20043;-66
2023/06/27 13:57:16;;;;;;;12.20;4.65;;;32.80;73.80;;;;;;5092908;28;20058;-66
2023/06/27 14:00:20;;;;;;;7.55;4.95;;;32.70;73.90;;;;;;5093187;28;20039;-66
2023/06/27 14:03:26;;;;;;;11.48;5.45;;;32.70;74.20;;;;;;5092625;28;20063;-66
2023/06/27 14:06:31;;;;;;;12.68;5.22;;;32.60;74.30;;;;;;5092688;28;20051;-66
2023/06/27 14:09:35;;;;;;;13.23;4.72;;;32.50;74.20;;;;;;5092728;28;20047;-66
2023/06/27 14:12:39;;;;;;;10.00;5.10;;;32.40;74.90;;;;;;5092636;28;20360;-67
2023/06/27 14:15:44;;;;;;;11.63;5.40;;;32.30;75.90;;;;;;5092568;28;20047;-67
2023/06/27 14:18:48;;;;;;;9.95;4.78;;;32.20;76.10;;;;;;5091381;28;20067;-67
2023/06/27 14:21:52;;;;;;;12.23;5.07;;;32.10;76.70;;;;;;5092091;28;20043;-67
2023/06/27 14:24:56;;;;;;;12.52;4.47;;;32.10;76.60;;;;;;5091829;28;20047;-67
2023/06/27 14:28:01;;;;;;;8.45;4.57;;;32.00;76.40;;;;;;5091939;28;20491;-67
2023/06/27 14:31:05;;;;;;;24.13;6.15;;;32.00;76.10;;;;;;5092354;28;20057;-67
2023/06/27 14:34:09;;;;;;;11.13;4.65;;;31.90;77.10;;;;;;5092199;28;20055;-67
2023/06/27 14:37:13;;;;;;;13.40;5.45;;;31.90;77.50;;;;;;5091847;28;20491;-66
2023/06/27 14:40:17;;;;;;;8.85;4.88;;;31.90;76.30;;;;;;5092188;28;20050;-67
2023/06/27 14:43:21;;;;;;;16.30;4.70;;;31.80;76.90;;;;;;5091803;28;20066;-67
2023/06/27 14:46:25;;;;;;;15.95;4.85;;;31.70;76.50;;;;;;5092130;28;20046;-66
2023/06/27 14:49:29;;;;;;;9.25;4.60;;;31.60;75.80;;;;;;5092214;28;20067;-67
2023/06/27 14:52:33;;;;;;;8.75;4.78;;;31.50;75.70;;;;;;5091682;28;20071;-67
2023/06/27 14:55:36;;;;;;;13.77;4.95;;;31.50;76.30;;;;;;5091505;28;20043;-67
2023/06/27 14:58:40;;;;;;;9.77;5.53;;;31.50;77.60;;;;;;5091547;28;20051;-67
2023/06/27 15:01:44;;;;;;;14.18;4.47;;;31.40;77.50;;;;;;5091451;28;20503;-67
2023/06/27 15:04:48;;;;;;;16.83;5.90;;;31.50;78.00;;;;;;5091714;28;20051;-67
2023/06/27 15:07:53;;;;;;;23.88;5.78;;;31.50;78.10;;;;;;5091124;28;20039;-67
2023/06/27 15:10:57;;;;;;;16.27;5.50;;;31.40;77.20;;;;;;5090462;28;20506;-67
2023/06/27 15:14:01;;;;;;;10.10;5.30;;;31.40;77.60;;;;;;5091351;28;20047;-67
2023/06/27 15:17:05;;;;;;;16.10;5.47;;;31.30;77.90;;;;;;5091545;28;20078;-67
2023/06/27 15:20:09;;;;;;;15.15;5.10;;;31.30;77.40;;;;;;5090738;28;20415;-67
2023/06/27 15:23:13;;;;;;;20.65;5.38;;;31.30;77.50;;;;;;5091240;28;20055;-67
2023/06/27 15:26:17;;;;;;;21.75;6.13;;;31.20;78.10;;;;;;5091276;28;20039;-67
2023/06/27 15:29:20;;;;;;;11.45;5.60;;;31.20;78.00;;;;;;5091164;28;20039;-67
2023/06/27 15:32:24;;;;;;;10.45;5.65;;;31.20;77.60;;;;;;5091000;28;20043;-67
2023/06/27 15:35:28;;;;;;;12.43;5.25;;;31.20;78.30;;;;;;5091228;28;20051;-67
2023/06/27 15:38:32;;;;;;;10.25;4.78;;;31.20;77.50;;;;;;5090817;28;20054;-67
2023/06/27 15:41:36;;;;;;;16.92;5.10;;;31.10;76.20;;;;;;5091176;28;20648;-68
2023/06/27 15:44:40;;;;;;;10.05;4.78;;;31.10;77.00;;;;;;5090908;28;20066;-67
2023/06/27 15:47:44;;;;;;;13.95;5.20;;;31.10;77.80;;;;;;5090964;28;20047;-67
2023/06/27 15:50:48;;;;;;;9.60;5.15;;;31.00;76.80;;;;;;5091013;28;20047;-67
2023/06/27 15:53:52;;;;;;;10.95;4.72;;;31.00;76.70;;;;;;5091254;28;20043;-67
2023/06/27 15:56:56;;;;;;;13.48;5.22;;;30.80;78.30;;;;;;5090682;28;20047;-67
2023/06/27 16:00:02;;;;;;;14.68;5.25;;;30.80;78.20;;;;;;5091058;28;20054;-67
2023/06/27 16:03:19;;;;;;;9.73;4.82;;;30.80;78.70;;;;;;5089874;28;20658;-66
2023/06/27 16:06:23;;;;;;;14.93;5.10;;;30.70;78.40;;;;;;5087698;28;20055;-66
2023/06/27 16:09:28;;;;;;;6.90;5.50;;;31.20;79.20;;;;;;5088859;28;20478;-67